Terminal Aerodrome Forecast
Issued by NWS

Home | Current Version | Previous Version | Text Only | Print | Product List | Glossary On
Versions: 1 2 3 4 5 6 7 8 9 10 11 12 13 14 15 16 17 18 19 20 21 22
710
FTUS43 KICT 211504 AAC
TAFCNU
TAF AMD
KCNU 211504Z 2115/2212 33003KT P6SM SCT015
      TEMPO 2115/2116 BKN015
     FM211600 VRB05KT P6SM BKN025
     FM211700 35006KT P6SM SCT035
     FM211900 VRB03KT P6SM SKC=

USA.gov is the U.S. government's official web portal to all federal, state and local government web resources and services.